Terminal Aerodrome Forecast
Issued by NWS

Home | Current Version | Previous Version | Graphics & Text | Print | Product List | Glossary On
Versions: 1 2 3 4 5 6 7 8 9 10 11 12 13 14 15 16 17 18 19 20 21 22
000
FTUS43 KBIS 281100 RRA
TAFMOT
TAF
KMOT 281145Z 2812/2912 31016KT P6SM VCSH SCT012 OVC025
     FM281800 32017G23KT P6SM BKN012 OVC025
     FM282200 32010KT P6SM BKN025 BKN035
     FM290300 29005KT P6SM SCT035=

USA.gov is the U.S. government's official web portal to all federal, state and local government web resources and services.